Time;durP1;ratioP1;P1;durP2;ratioP2;P2;SDS_P1;SDS_P2;PMS_P1;PMS_P2;Temp;Humidity;BMP_temperature;BMP_pressure;BME280_temperature;BME280_humidity;BME280_pressure;Samples;Min_cycle;Max_cycle;Signal;HPM_P1;HPM_P2
2022/08/14 00:00:15;;;;;;;4.07;3.25;;;;;;;;;;5029423;28;20045;-66
2022/08/14 00:02:42;;;;;;;4.40;3.40;;;;;;;;;;5029464;28;20124;-66
2022/08/14 00:05:09;;;;;;;4.10;3.17;;;;;;;;;;5029153;28;20592;-66
2022/08/14 00:07:35;;;;;;;4.85;3.50;;;;;;;;;;5029785;28;20590;-66
2022/08/14 00:10:03;;;;;;;4.68;3.20;;;;;;;;;;5029981;28;20193;-65
2022/08/14 00:12:30;;;;;;;5.63;3.88;;;;;;;;;;5030462;28;20026;-66
2022/08/14 00:14:56;;;;;;;4.13;3.22;;;;;;;;;;5029293;28;20073;-66
2022/08/14 00:17:22;;;;;;;5.30;3.55;;;;;;;;;;5029748;28;20038;-66
2022/08/14 00:19:48;;;;;;;6.47;3.53;;;;;;;;;;5029663;28;20033;-66
2022/08/14 00:22:17;;;;;;;3.70;3.08;;;;;;;;;;5025310;28;20587;-66
2022/08/14 00:24:43;;;;;;;3.80;3.33;;;;;;;;;;5017810;28;20439;-66
2022/08/14 00:27:08;;;;;;;4.18;3.55;;;;;;;;;;5010160;28;20038;-66
2022/08/14 00:29:34;;;;;;;4.53;3.60;;;;;;;;;;5040258;28;20087;-66
2022/08/14 00:31:59;;;;;;;3.88;3.30;;;;;;;;;;5049274;28;20405;-66
2022/08/14 00:34:24;;;;;;;4.13;3.33;;;;;;;;;;5042294;28;20041;-66
2022/08/14 00:36:50;;;;;;;4.25;3.22;;;;;;;;;;5029734;28;20057;-66
2022/08/14 00:39:15;;;;;;;4.05;3.50;;;;;;;;;;5029034;28;20033;-66
2022/08/14 00:41:41;;;;;;;5.28;3.53;;;;;;;;;;5029067;28;20033;-66
2022/08/14 00:44:07;;;;;;;4.57;3.50;;;;;;;;;;5028673;28;20055;-67
2022/08/14 00:46:32;;;;;;;4.70;3.40;;;;;;;;;;5028884;28;20052;-66
2022/08/14 00:48:57;;;;;;;4.88;3.33;;;;;;;;;;5025471;28;20022;-65
2022/08/14 00:51:23;;;;;;;4.30;3.47;;;;;;;;;;5030210;28;20025;-66
2022/08/14 00:53:49;;;;;;;4.97;3.65;;;;;;;;;;5032855;28;20052;-67
2022/08/14 00:56:16;;;;;;;4.50;3.30;;;;;;;;;;5028639;28;20044;-67
2022/08/14 00:58:41;;;;;;;4.95;3.25;;;;;;;;;;5029234;28;20057;-66
2022/08/14 01:01:09;;;;;;;6.80;3.60;;;;;;;;;;5017679;28;20061;-66
2022/08/14 01:03:38;;;;;;;3.45;3.05;;;;;;;;;;5020688;28;20043;-66
2022/08/14 01:06:07;;;;;;;4.65;3.42;;;;;;;;;;5029040;28;20855;-66
2022/08/14 01:08:33;;;;;;;7.80;3.75;;;;;;;;;;5028310;28;20034;-66
2022/08/14 01:10:59;;;;;;;4.50;3.45;;;;;;;;;;5028099;28;20042;-66
2022/08/14 01:13:27;;;;;;;5.10;3.35;;;;;;;;;;5027216;28;20062;-66
2022/08/14 01:15:55;;;;;;;6.00;3.60;;;;;;;;;;5029130;28;20021;-66
2022/08/14 01:21:11;;;;;;;5.90;3.80;;;;;;;;;;5028811;28;20036;-66
2022/08/14 01:23:46;;;;;;;5.90;3.33;;;;;;;;;;5028386;28;20037;-66
2022/08/14 01:26:14;;;;;;;13.10;3.78;;;;;;;;;;5032596;28;20698;-66
2022/08/14 01:28:41;;;;;;;6.30;3.58;;;;;;;;;;5028367;28;20521;-66
2022/08/14 01:31:14;;;;;;;4.75;3.75;;;;;;;;;;5028088;28;20029;-66
2022/08/14 01:33:43;;;;;;;4.75;3.67;;;;;;;;;;5018631;28;20018;-66
2022/08/14 01:36:10;;;;;;;6.03;3.75;;;;;;;;;;5014603;28;20764;-66
2022/08/14 01:38:37;;;;;;;5.80;3.80;;;;;;;;;;5008883;28;20111;-66
2022/08/14 01:41:07;;;;;;;5.28;3.47;;;;;;;;;;5009466;28;20112;-66
2022/08/14 01:43:41;;;;;;;4.95;3.22;;;;;;;;;;5028010;28;20037;-66
2022/08/14 01:46:10;;;;;;;6.05;3.63;;;;;;;;;;5028100;28;20021;-65
2022/08/14 01:48:37;;;;;;;5.30;3.50;;;;;;;;;;5027954;28;20534;-66
2022/08/14 01:51:02;;;;;;;8.38;4.28;;;;;;;;;;5031064;28;20107;-66
2022/08/14 01:53:28;;;;;;;5.55;3.22;;;;;;;;;;5047838;28;20546;-65
2022/08/14 01:56:02;;;;;;;7.07;3.50;;;;;;;;;;5027349;28;20049;-66
2022/08/14 01:58:28;;;;;;;5.50;3.40;;;;;;;;;;5027536;28;20022;-66
2022/08/14 02:00:55;;;;;;;4.97;3.40;;;;;;;;;;5026597;28;20037;-66
2022/08/14 02:03:22;;;;;;;6.43;3.95;;;;;;;;;;5026873;28;20057;-66
2022/08/14 02:05:48;;;;;;;4.80;3.92;;;;;;;;;;5016523;28;20479;-66
2022/08/14 02:08:14;;;;;;;4.60;3.55;;;;;;;;;;5014627;28;20559;-66
2022/08/14 02:10:40;;;;;;;5.13;3.50;;;;;;;;;;5013349;28;20041;-66
2022/08/14 02:13:09;;;;;;;4.25;3.38;;;;;;;;;;5008462;28;20033;-66
2022/08/14 02:15:34;;;;;;;6.57;3.28;;;;;;;;;;5008603;28;20026;-65
2022/08/14 02:18:00;;;;;;;6.45;3.45;;;;;;;;;;5021835;28;20807;-66
2022/08/14 02:20:29;;;;;;;8.27;3.28;;;;;;;;;;5027722;28;20463;-66
2022/08/14 02:22:55;;;;;;;4.22;3.28;;;;;;;;;;5008399;28;20049;-65
2022/08/14 02:25:20;;;;;;;6.18;3.92;;;;;;;;;;5018419;28;20575;-65
2022/08/14 02:27:47;;;;;;;8.02;3.70;;;;;;;;;;5022668;28;20029;-66
2022/08/14 02:30:14;;;;;;;9.70;3.83;;;;;;;;;;5027383;28;20049;-66
2022/08/14 02:32:39;;;;;;;6.15;3.80;;;;;;;;;;5026499;28;20045;-66
2022/08/14 02:35:14;;;;;;;6.80;4.00;;;;;;;;;;5016948;28;20033;-66
2022/08/14 02:37:39;;;;;;;6.05;3.85;;;;;;;;;;5027756;28;20057;-66
2022/08/14 02:40:05;;;;;;;5.53;3.78;;;;;;;;;;5027913;28;20097;-66
2022/08/14 02:42:31;;;;;;;4.82;3.70;;;;;;;;;;5027477;28;20714;-66
2022/08/14 02:44:57;;;;;;;5.47;3.60;;;;;;;;;;5027199;28;20327;-66
2022/08/14 02:47:22;;;;;;;5.75;3.78;;;;;;;;;;5022110;28;20034;-66
2022/08/14 02:49:47;;;;;;;7.18;3.50;;;;;;;;;;5022583;28;20069;-66
2022/08/14 02:52:13;;;;;;;9.52;3.63;;;;;;;;;;5037716;28;20031;-65
2022/08/14 02:54:39;;;;;;;4.03;3.10;;;;;;;;;;5038446;28;20049;-66
2022/08/14 02:57:05;;;;;;;4.68;3.40;;;;;;;;;;5026794;28;20523;-66
2022/08/14 02:59:32;;;;;;;4.80;3.45;;;;;;;;;;5027810;28;20041;-66
2022/08/14 03:01:59;;;;;;;6.63;3.50;;;;;;;;;;5026609;28;20045;-66
2022/08/14 03:04:29;;;;;;;4.82;3.72;;;;;;;;;;5027341;28;20068;-66
2022/08/14 03:06:54;;;;;;;4.60;3.42;;;;;;;;;;5024086;28;20030;-66
2022/08/14 03:09:20;;;;;;;4.97;3.00;;;;;;;;;;5024975;28;20080;-66
2022/08/14 03:11:45;;;;;;;3.55;2.95;;;;;;;;;;5030671;28;20049;-66
2022/08/14 03:14:12;;;;;;;6.30;3.33;;;;;;;;;;5017518;28;20565;-66
2022/08/14 03:16:39;;;;;;;5.60;3.50;;;;;;;;;;5021362;28;20045;-66
2022/08/14 03:19:06;;;;;;;6.15;3.65;;;;;;;;;;5019075;28;20033;-66
2022/08/14 03:21:32;;;;;;;5.22;3.70;;;;;;;;;;5019364;28;20068;-66
2022/08/14 03:24:10;;;;;;;3.97;3.10;;;;;;;;;;5024640;28;20083;-66
2022/08/14 03:26:38;;;;;;;4.35;3.33;;;;;;;;;;5027848;28;20098;-66
2022/08/14 03:29:05;;;;;;;4.88;3.38;;;;;;;;;;5020213;28;20037;-66
2022/08/14 03:31:30;;;;;;;5.22;3.30;;;;;;;;;;5030777;28;20039;-66
2022/08/14 03:33:57;;;;;;;4.72;3.05;;;;;;;;;;5027560;28;20961;-66
2022/08/14 03:36:22;;;;;;;4.63;3.67;;;;;;;;;;5027775;28;20036;-66
2022/08/14 03:38:52;;;;;;;5.57;3.83;;;;;;;;;;5027693;28;20029;-66
2022/08/14 03:41:21;;;;;;;7.28;3.95;;;;;;;;;;5012431;28;20042;-66
2022/08/14 03:43:49;;;;;;;5.15;3.63;;;;;;;;;;5024896;28;20475;-66
2022/08/14 03:46:15;;;;;;;4.95;3.58;;;;;;;;;;5030121;28;20033;-65
2022/08/14 03:48:41;;;;;;;5.60;3.55;;;;;;;;;;5030920;28;20045;-66
2022/08/14 03:51:08;;;;;;;5.93;3.90;;;;;;;;;;5037900;28;20112;-66
2022/08/14 03:53:36;;;;;;;4.65;3.35;;;;;;;;;;5030442;28;20080;-66
2022/08/14 03:56:03;;;;;;;7.18;3.65;;;;;;;;;;5024714;28;20045;-65
2022/08/14 03:58:31;;;;;;;4.53;3.67;;;;;;;;;;5023804;28;20049;-65
2022/08/14 04:00:57;;;;;;;11.82;3.88;;;;;;;;;;5030142;28;20103;-66
2022/08/14 04:03:25;;;;;;;5.97;3.80;;;;;;;;;;5029067;28;20038;-66
2022/08/14 04:05:51;;;;;;;6.30;4.18;;;;;;;;;;5031898;28;20037;-66
2022/08/14 04:08:17;;;;;;;5.90;4.13;;;;;;;;;;5028392;28;20044;-66
2022/08/14 04:10:45;;;;;;;6.18;4.03;;;;;;;;;;5023479;28;20737;-66
2022/08/14 04:13:10;;;;;;;6.38;4.38;;;;;;;;;;5023654;28;20089;-66
2022/08/14 04:15:36;;;;;;;7.22;4.68;;;;;;;;;;5029671;28;20499;-66
2022/08/14 04:18:05;;;;;;;5.80;4.35;;;;;;;;;;5029497;28;20033;-66
2022/08/14 04:20:30;;;;;;;13.32;4.22;;;;;;;;;;5028829;28;20034;-66
2022/08/14 04:22:56;;;;;;;5.25;4.07;;;;;;;;;;5020706;28;20052;-66
2022/08/14 04:25:21;;;;;;;5.38;4.03;;;;;;;;;;5028013;28;20521;-66
2022/08/14 04:27:47;;;;;;;5.07;4.22;;;;;;;;;;5029814;28;20120;-66
2022/08/14 04:30:12;;;;;;;7.60;4.20;;;;;;;;;;5029437;28;20414;-66
2022/08/14 04:32:37;;;;;;;5.50;4.13;;;;;;;;;;5029728;28;20072;-66
2022/08/14 04:35:03;;;;;;;10.85;3.88;;;;;;;;;;5029245;28;20415;-67
2022/08/14 04:45:41;;;;;;;13.55;5.38;;;;;;;;;;5022672;28;20045;-66
2022/08/14 04:48:12;;;;;;;11.30;5.90;;;;;;;;;;5017329;28;20057;-65
2022/08/14 04:50:45;;;;;;;8.65;5.57;;;;;;;;;;5023489;28;20570;-66
2022/08/14 04:53:14;;;;;;;9.90;6.13;;;;;;;;;;5025833;28;20124;-66
2022/08/14 04:55:41;;;;;;;10.27;5.88;;;;;;;;;;5028689;28;20514;-66
2022/08/14 04:58:08;;;;;;;12.35;5.10;;;;;;;;;;5029176;28;20025;-66
2022/08/14 05:00:34;;;;;;;8.27;4.35;;;;;;;;;;5029124;28;20421;-66
2022/08/14 05:03:02;;;;;;;6.90;4.63;;;;;;;;;;5028831;28;20034;-66
2022/08/14 05:05:27;;;;;;;10.13;4.95;;;;;;;;;;5027437;28;20065;-65
2022/08/14 05:07:52;;;;;;;6.20;4.10;;;;;;;;;;5030688;28;20119;-66
2022/08/14 05:10:24;;;;;;;6.32;3.88;;;;;;;;;;5028494;28;20498;-66
2022/08/14 05:12:51;;;;;;;9.60;3.97;;;;;;;;;;5029273;28;20631;-66
2022/08/14 05:15:20;;;;;;;7.70;4.22;;;;;;;;;;5028892;28;20030;-66
2022/08/14 05:17:45;;;;;;;5.82;3.60;;;;;;;;;;5018847;28;20466;-66
2022/08/14 05:20:11;;;;;;;5.28;3.72;;;;;;;;;;5027646;28;20558;-66
2022/08/14 05:22:37;;;;;;;8.10;4.50;;;;;;;;;;5029038;28;20470;-66
2022/08/14 05:25:03;;;;;;;15.25;4.22;;;;;;;;;;5028552;28;20083;-66
2022/08/14 05:27:28;;;;;;;12.40;4.20;;;;;;;;;;5028751;28;20064;-66
2022/08/14 05:29:54;;;;;;;7.90;3.97;;;;;;;;;;5028359;28;20114;-66
2022/08/14 05:32:20;;;;;;;6.82;4.60;;;;;;;;;;5028514;28;20414;-66
2022/08/14 05:34:46;;;;;;;6.15;4.10;;;;;;;;;;5023038;28;20036;-66
2022/08/14 05:37:13;;;;;;;7.82;4.20;;;;;;;;;;5028829;28;20025;-66
2022/08/14 05:39:40;;;;;;;10.65;4.97;;;;;;;;;;5020126;28;20076;-66
2022/08/14 05:42:05;;;;;;;8.65;4.38;;;;;;;;;;5028404;28;20048;-66
2022/08/14 05:44:31;;;;;;;6.72;4.50;;;;;;;;;;5028533;28;20033;-66
2022/08/14 05:46:57;;;;;;;8.55;4.47;;;;;;;;;;5025488;28;20033;-65
2022/08/14 05:49:22;;;;;;;8.90;3.85;;;;;;;;;;5023424;28;20021;-66
2022/08/14 05:51:48;;;;;;;8.23;3.97;;;;;;;;;;5030188;28;20021;-66
2022/08/14 05:54:13;;;;;;;8.88;4.28;;;;;;;;;;5031870;28;20048;-66
2022/08/14 05:56:38;;;;;;;7.47;4.50;;;;;;;;;;5008094;28;20104;-66
2022/08/14 05:59:04;;;;;;;6.53;4.32;;;;;;;;;;5017204;28;20033;-66
2022/08/14 06:01:29;;;;;;;7.93;4.13;;;;;;;;;;5027312;28;20392;-66
2022/08/14 06:03:55;;;;;;;8.15;4.35;;;;;;;;;;5027408;28;20410;-66
2022/08/14 06:06:20;;;;;;;6.47;3.35;;;;;;;;;;5026542;28;20033;-66
2022/08/14 06:08:45;;;;;;;4.60;3.20;;;;;;;;;;5023422;28;20504;-66
2022/08/14 06:11:11;;;;;;;7.00;3.63;;;;;;;;;;5026367;28;20094;-66
2022/08/14 06:13:38;;;;;;;6.85;3.88;;;;;;;;;;5028296;28;20409;-66
2022/08/14 06:16:04;;;;;;;5.55;3.30;;;;;;;;;;5028170;28;20110;-66
2022/08/14 06:18:32;;;;;;;5.68;3.50;;;;;;;;;;5027844;28;20107;-66
2022/08/14 06:20:58;;;;;;;4.10;3.60;;;;;;;;;;5027778;28;20030;-66
2022/08/14 06:23:23;;;;;;;5.75;3.55;;;;;;;;;;5027263;28;20032;-66
2022/08/14 06:25:48;;;;;;;6.15;3.63;;;;;;;;;;5027730;28;20076;-66
2022/08/14 06:28:18;;;;;;;6.78;3.80;;;;;;;;;;5029207;28;20022;-66
2022/08/14 06:30:44;;;;;;;6.22;3.42;;;;;;;;;;5028130;28;20024;-66
2022/08/14 06:33:09;;;;;;;7.00;3.65;;;;;;;;;;5027729;28;20037;-66
2022/08/14 06:35:34;;;;;;;8.38;3.80;;;;;;;;;;5027528;28;20045;-66
2022/08/14 06:38:00;;;;;;;8.20;3.60;;;;;;;;;;5027688;28;20477;-66
2022/08/14 06:40:29;;;;;;;5.63;3.38;;;;;;;;;;5029772;28;20112;-66
2022/08/14 06:43:03;;;;;;;6.70;3.72;;;;;;;;;;5029790;28;20490;-66
2022/08/14 06:45:32;;;;;;;5.88;3.80;;;;;;;;;;5030426;28;20033;-67
2022/08/14 06:48:00;;;;;;;4.95;3.47;;;;;;;;;;5038131;28;20062;-66
2022/08/14 06:50:26;;;;;;;6.78;3.70;;;;;;;;;;5021003;28;20533;-66
2022/08/14 06:52:52;;;;;;;7.35;3.78;;;;;;;;;;5046703;28;20044;-66
2022/08/14 06:55:18;;;;;;;5.45;4.05;;;;;;;;;;5030861;28;20399;-66
2022/08/14 06:57:48;;;;;;;6.70;3.55;;;;;;;;;;5029136;28;20021;-66
2022/08/14 07:00:19;;;;;;;6.10;4.30;;;;;;;;;;5010986;28;20503;-66
2022/08/14 07:05:45;;;;;;;6.38;3.60;;;;;;;;;;5030853;28;20418;-66
2022/08/14 07:08:29;;;;;;;8.68;3.67;;;;;;;;;;5027071;28;20041;-66
2022/08/14 07:10:57;;;;;;;6.80;3.97;;;;;;;;;;5022564;28;20037;-66
2022/08/14 07:13:23;;;;;;;5.60;3.90;;;;;;;;;;5017398;28;20561;-66
2022/08/14 07:15:51;;;;;;;6.60;3.80;;;;;;;;;;5013011;28;20117;-65
2022/08/14 07:18:20;;;;;;;6.18;3.88;;;;;;;;;;5014673;28;20526;-66
2022/08/14 07:20:46;;;;;;;6.20;3.63;;;;;;;;;;5010789;28;20103;-66
2022/08/14 07:23:11;;;;;;;5.63;3.85;;;;;;;;;;5026081;28;20148;-66
2022/08/14 07:25:39;;;;;;;4.93;3.92;;;;;;;;;;5022249;28;20533;-66
2022/08/14 07:28:16;;;;;;;7.38;4.10;;;;;;;;;;5014256;28;20454;-66
2022/08/14 07:30:42;;;;;;;5.18;3.22;;;;;;;;;;5018264;28;20046;-66
2022/08/14 07:33:09;;;;;;;9.45;3.97;;;;;;;;;;5015468;28;20427;-66
2022/08/14 07:35:36;;;;;;;5.63;4.10;;;;;;;;;;5011705;28;20044;-66
2022/08/14 07:38:03;;;;;;;6.30;4.38;;;;;;;;;;5037445;28;20041;-65
2022/08/14 07:40:28;;;;;;;5.97;3.78;;;;;;;;;;5030157;28;20091;-66
2022/08/14 07:42:54;;;;;;;5.43;4.35;;;;;;;;;;5027738;28;20418;-66
2022/08/14 07:45:20;;;;;;;5.53;3.78;;;;;;;;;;5026375;28;20037;-66
2022/08/14 07:47:45;;;;;;;5.13;4.10;;;;;;;;;;5027170;28;20033;-66
2022/08/14 07:50:13;;;;;;;6.30;4.05;;;;;;;;;;5028557;28;20491;-66
2022/08/14 07:52:40;;;;;;;13.45;5.03;;;;;;;;;;5028743;28;20927;-66
2022/08/14 07:55:07;;;;;;;4.93;3.70;;;;;;;;;;5028589;28;20048;-66
2022/08/14 07:57:32;;;;;;;6.18;4.25;;;;;;;;;;5028640;28;20099;-66
2022/08/14 07:59:58;;;;;;;5.68;3.58;;;;;;;;;;5024983;28;20523;-66
2022/08/14 08:02:29;;;;;;;9.20;3.85;;;;;;;;;;5026339;28;20041;-66
2022/08/14 08:04:55;;;;;;;6.43;4.05;;;;;;;;;;5024958;28;20033;-66
2022/08/14 08:07:22;;;;;;;4.53;3.63;;;;;;;;;;5021058;28;20034;-65
2022/08/14 08:09:52;;;;;;;4.57;3.70;;;;;;;;;;5029508;28;20029;-66
2022/08/14 08:12:19;;;;;;;4.80;3.60;;;;;;;;;;5025175;28;20103;-65
2022/08/14 08:14:47;;;;;;;4.75;3.88;;;;;;;;;;5026357;28;20073;-66
2022/08/14 08:17:14;;;;;;;5.07;3.75;;;;;;;;;;5026761;28;20581;-65
2022/08/14 08:19:39;;;;;;;5.40;3.63;;;;;;;;;;5029395;28;20120;-66
2022/08/14 08:22:05;;;;;;;10.10;3.88;;;;;;;;;;5029596;28;20096;-66
2022/08/14 08:24:30;;;;;;;5.15;3.85;;;;;;;;;;5028851;28;20060;-66
2022/08/14 08:26:56;;;;;;;4.97;3.80;;;;;;;;;;5028967;28;20064;-66
2022/08/14 08:29:23;;;;;;;4.93;3.90;;;;;;;;;;5028992;28;20037;-66
2022/08/14 08:31:50;;;;;;;5.35;3.40;;;;;;;;;;5019112;28;20088;-65
2022/08/14 08:34:16;;;;;;;5.00;4.00;;;;;;;;;;5030013;28;20025;-65
2022/08/14 08:36:42;;;;;;;6.53;3.90;;;;;;;;;;5029061;28;20032;-66
2022/08/14 08:39:09;;;;;;;10.43;3.88;;;;;;;;;;5028673;28;20084;-66
2022/08/14 08:41:46;;;;;;;5.22;3.42;;;;;;;;;;5023617;28;20095;-66
2022/08/14 08:44:12;;;;;;;5.25;3.53;;;;;;;;;;5027399;28;20063;-65
2022/08/14 08:46:38;;;;;;;4.07;3.65;;;;;;;;;;5021939;28;20120;-66
2022/08/14 08:49:04;;;;;;;5.50;3.88;;;;;;;;;;5026445;28;20541;-66
2022/08/14 08:51:39;;;;;;;5.03;3.83;;;;;;;;;;5032815;28;20036;-65
2022/08/14 08:54:04;;;;;;;4.63;3.72;;;;;;;;;;5007342;28;20698;-66
2022/08/14 08:56:50;;;;;;;4.97;4.00;;;;;;;;;;5023080;28;20080;-66
2022/08/14 08:59:32;;;;;;;7.40;3.72;;;;;;;;;;5010443;28;20042;-66
2022/08/14 09:02:04;;;;;;;13.25;3.65;;;;;;;;;;5014769;28;20064;-66
2022/08/14 09:04:40;;;;;;;12.18;3.60;;;;;;;;;;5014041;28;20491;-65
2022/08/14 09:07:07;;;;;;;6.72;3.83;;;;;;;;;;5023110;28;20104;-66
2022/08/14 09:09:49;;;;;;;5.10;3.70;;;;;;;;;;5024151;28;20640;-66
2022/08/14 09:12:17;;;;;;;4.47;3.93;;;;;;;;;;5027887;28;20038;-66
2022/08/14 09:14:43;;;;;;;4.93;3.58;;;;;;;;;;5025463;28;20864;-66
2022/08/14 09:17:08;;;;;;;7.43;3.80;;;;;;;;;;5029506;28;20033;-66
2022/08/14 09:19:35;;;;;;;4.53;3.45;;;;;;;;;;5027998;28;20052;-66
2022/08/14 09:22:02;;;;;;;5.47;4.70;;;;;;;;;;5028535;28;20045;-66
2022/08/14 09:24:28;;;;;;;6.43;3.65;;;;;;;;;;5027774;28;20087;-66
2022/08/14 09:26:54;;;;;;;5.22;3.63;;;;;;;;;;5027907;28;20045;-66
2022/08/14 09:29:19;;;;;;;4.82;3.72;;;;;;;;;;5027941;28;20038;-66
2022/08/14 09:31:48;;;;;;;7.88;3.58;;;;;;;;;;5027261;28;20507;-66
2022/08/14 09:35:04;;;;;;;4.07;3.63;;;;;;;;;;5027241;28;20033;-66
2022/08/14 09:37:38;;;;;;;5.75;3.78;;;;;;;;;;4999423;28;20050;-66
2022/08/14 09:40:18;;;;;;;4.68;3.63;;;;;;;;;;5026564;28;20033;-66
2022/08/14 09:42:51;;;;;;;5.40;3.70;;;;;;;;;;5027421;28;20034;-66
2022/08/14 09:45:22;;;;;;;4.75;3.60;;;;;;;;;;5027295;28;20030;-66
2022/08/14 09:47:51;;;;;;;4.50;3.40;;;;;;;;;;5032175;28;20103;-66
2022/08/14 09:50:16;;;;;;;7.30;3.30;;;;;;;;;;5022472;28;20092;-66
2022/08/14 09:52:52;;;;;;;4.22;3.60;;;;;;;;;;5043845;28;20476;-66
2022/08/14 09:55:19;;;;;;;8.15;4.10;;;;;;;;;;5044450;28;20700;-66
2022/08/14 09:57:45;;;;;;;4.22;3.45;;;;;;;;;;5020406;28;20032;-66
2022/08/14 10:00:13;;;;;;;5.18;3.47;;;;;;;;;;5022653;28;20038;-66
2022/08/14 10:02:39;;;;;;;5.30;3.38;;;;;;;;;;5014568;28;20499;-66
2022/08/14 10:05:09;;;;;;;3.47;2.97;;;;;;;;;;5025996;28;20048;-66
2022/08/14 10:07:49;;;;;;;5.55;2.70;;;;;;;;;;5021761;28;20045;-66
2022/08/14 10:10:32;;;;;;;3.35;2.58;;;;;;;;;;5026487;28;20518;-65
2022/08/14 10:12:59;;;;;;;5.40;2.67;;;;;;;;;;5026017;28;20030;-66
2022/08/14 10:15:27;;;;;;;5.38;2.40;;;;;;;;;;5026404;28;20037;-66
2022/08/14 10:18:10;;;;;;;5.72;3.70;;;;;;;;;;5025219;28;20041;-66
2022/08/14 10:20:42;;;;;;;5.70;4.70;;;;;;;;;;5027028;28;20072;-67
2022/08/14 10:23:16;;;;;;;6.22;3.22;;;;;;;;;;5027872;28;20081;-66
2022/08/14 10:25:44;;;;;;;6.22;4.97;;;;;;;;;;5028039;28;20791;-66
2022/08/14 10:28:14;;;;;;;8.50;5.00;;;;;;;;;;5020269;28;20098;-66
2022/08/14 10:30:41;;;;;;;3.92;3.40;;;;;;;;;;5024780;28;20095;-65
2022/08/14 10:33:07;;;;;;;6.30;3.92;;;;;;;;;;5025947;28;20043;-66
2022/08/14 10:35:42;;;;;;;5.00;3.55;;;;;;;;;;5014793;28;20045;-66
2022/08/14 10:38:09;;;;;;;4.97;4.40;;;;;;;;;;5022743;28;20033;-66
2022/08/14 10:40:35;;;;;;;6.03;3.50;;;;;;;;;;5017619;28;20056;-67
2022/08/14 10:43:01;;;;;;;4.68;3.72;;;;;;;;;;5015794;28;20040;-66
2022/08/14 10:45:33;;;;;;;4.05;3.35;;;;;;;;;;5021899;28;20041;-66
2022/08/14 10:48:00;;;;;;;6.70;3.40;;;;;;;;;;5019906;28;20037;-66
2022/08/14 10:50:40;;;;;;;4.40;3.30;;;;;;;;;;5022249;28;20045;-66
2022/08/14 10:53:05;;;;;;;3.88;3.20;;;;;;;;;;5022686;28;21254;-66
2022/08/14 10:55:39;;;;;;;6.47;3.15;;;;;;;;;;5013920;28;20104;-67
2022/08/14 10:58:10;;;;;;;3.40;3.10;;;;;;;;;;5018216;28;20041;-67
2022/08/14 11:00:38;;;;;;;4.22;3.60;;;;;;;;;;5015072;28;20038;-66
2022/08/14 11:03:16;;;;;;;5.03;3.60;;;;;;;;;;5013838;28;20133;-66
2022/08/14 11:05:47;;;;;;;4.53;3.90;;;;;;;;;;5020617;28;20053;-66
2022/08/14 11:08:14;;;;;;;4.18;3.70;;;;;;;;;;5025275;28;20084;-65
2022/08/14 11:10:54;;;;;;;6.15;4.20;;;;;;;;;;5018039;28;20095;-67
2022/08/14 11:13:29;;;;;;;6.88;3.97;;;;;;;;;;5017802;28;20041;-67
2022/08/14 11:15:57;;;;;;;4.13;3.55;;;;;;;;;;5024739;28;20139;-68
2022/08/14 11:18:23;;;;;;;5.28;3.40;;;;;;;;;;5006267;28;20034;-67
2022/08/14 11:20:53;;;;;;;4.53;3.35;;;;;;;;;;5020467;28;20388;-67
2022/08/14 11:23:21;;;;;;;5.22;3.40;;;;;;;;;;5016792;28;20030;-67
2022/08/14 11:25:48;;;;;;;4.43;3.55;;;;;;;;;;5017464;28;20037;-66
2022/08/14 11:28:15;;;;;;;3.92;3.17;;;;;;;;;;5020898;28;20384;-66
2022/08/14 11:30:43;;;;;;;5.15;3.83;;;;;;;;;;5020571;28;20054;-66
2022/08/14 11:33:10;;;;;;;4.03;3.63;;;;;;;;;;5023934;28;20529;-66
2022/08/14 11:35:36;;;;;;;3.33;3.03;;;;;;;;;;5023543;28;20167;-66
2022/08/14 11:38:04;;;;;;;6.53;3.08;;;;;;;;;;5022772;28;20520;-66
2022/08/14 11:40:37;;;;;;;4.65;3.20;;;;;;;;;;5020438;28;20033;-66
2022/08/14 11:43:06;;;;;;;3.67;3.05;;;;;;;;;;5021881;28;20025;-66
2022/08/14 11:45:35;;;;;;;3.05;2.42;;;;;;;;;;5027451;28;20049;-66
2022/08/14 11:48:13;;;;;;;4.35;2.47;;;;;;;;;;5025378;28;20518;-66
2022/08/14 11:50:38;;;;;;;2.97;2.50;;;;;;;;;;5027548;28;20045;-66
2022/08/14 11:53:05;;;;;;;3.33;2.67;;;;;;;;;;5041461;28;20512;-66
2022/08/14 11:55:36;;;;;;;4.72;2.42;;;;;;;;;;5025918;28;20538;-66
2022/08/14 11:58:08;;;;;;;2.70;2.50;;;;;;;;;;5022052;28;20053;-66
2022/08/14 12:00:45;;;;;;;2.85;2.60;;;;;;;;;;5022848;28;20053;-66
2022/08/14 12:03:11;;;;;;;3.00;2.58;;;;;;;;;;5024001;28;20060;-66
2022/08/14 12:05:41;;;;;;;3.13;2.70;;;;;;;;;;5029768;28;20068;-66
2022/08/14 12:08:07;;;;;;;2.50;2.10;;;;;;;;;;5020252;28;20054;-66
2022/08/14 12:10:37;;;;;;;2.70;2.22;;;;;;;;;;5018281;28;20084;-66
2022/08/14 12:13:19;;;;;;;4.22;2.33;;;;;;;;;;5027804;28;20021;-66
2022/08/14 12:15:57;;;;;;;2.63;2.43;;;;;;;;;;5027854;28;20052;-66
2022/08/14 12:18:31;;;;;;;3.28;2.75;;;;;;;;;;5007735;28;20044;-66
2022/08/14 12:20:56;;;;;;;3.70;3.30;;;;;;;;;;5014476;28;20045;-65
2022/08/14 12:23:24;;;;;;;2.90;2.60;;;;;;;;;;5020730;28;20076;-66
2022/08/14 12:26:04;;;;;;;2.78;2.47;;;;;;;;;;5016535;28;20033;-66
2022/08/14 12:28:29;;;;;;;3.70;2.65;;;;;;;;;;5027432;28;20029;-66
2022/08/14 12:30:55;;;;;;;3.00;2.70;;;;;;;;;;5021680;28;20048;-66
2022/08/14 12:33:39;;;;;;;4.05;3.15;;;;;;;;;;5025453;28;20037;-67
2022/08/14 12:36:08;;;;;;;5.75;2.75;;;;;;;;;;5019693;28;20033;-66
2022/08/14 12:38:40;;;;;;;3.08;2.50;;;;;;;;;;5014295;28;20046;-67
2022/08/14 12:41:14;;;;;;;2.50;2.30;;;;;;;;;;5007718;28;20042;-66
2022/08/14 12:43:57;;;;;;;3.25;2.40;;;;;;;;;;5022894;28;20037;-67
2022/08/14 12:46:30;;;;;;;2.90;2.30;;;;;;;;;;5024548;28;20033;-67
2022/08/14 12:49:08;;;;;;;3.10;2.03;;;;;;;;;;5027158;28;20390;-67
2022/08/14 12:51:34;;;;;;;2.90;2.20;;;;;;;;;;5022997;28;20055;-67
2022/08/14 12:54:13;;;;;;;2.95;2.17;;;;;;;;;;5012161;28;20046;-66
2022/08/14 12:56:39;;;;;;;3.08;2.22;;;;;;;;;;5014769;28;20054;-67
2022/08/14 12:59:04;;;;;;;2.28;2.08;;;;;;;;;;5022343;28;20099;-67
2022/08/14 13:01:32;;;;;;;3.35;2.10;;;;;;;;;;5025640;28;20029;-66
2022/08/14 13:04:16;;;;;;;2.40;2.20;;;;;;;;;;5027998;28;20040;-67
2022/08/14 13:06:46;;;;;;;3.63;2.00;;;;;;;;;;5012401;28;20072;-67
2022/08/14 13:09:15;;;;;;;2.83;2.53;;;;;;;;;;5007462;28;20092;-66
2022/08/14 13:11:53;;;;;;;2.50;2.30;;;;;;;;;;5016901;28;20682;-67
2022/08/14 13:14:25;;;;;;;3.03;2.25;;;;;;;;;;5025430;28;20056;-64
2022/08/14 13:16:56;;;;;;;4.78;2.40;;;;;;;;;;5027100;28;20464;-64
2022/08/14 13:19:22;;;;;;;2.85;2.50;;;;;;;;;;5025080;28;20494;-64
2022/08/14 13:21:50;;;;;;;4.13;2.83;;;;;;;;;;5028201;28;20293;-64
2022/08/14 13:24:19;;;;;;;2.90;2.30;;;;;;;;;;5031011;28;20452;-64
2022/08/14 13:26:49;;;;;;;2.47;2.28;;;;;;;;;;5026458;28;20045;-64
2022/08/14 13:29:18;;;;;;;3.25;2.20;;;;;;;;;;5025381;28;20136;-64
2022/08/14 13:31:48;;;;;;;2.80;2.30;;;;;;;;;;5025583;28;20033;-65
2022/08/14 13:34:14;;;;;;;2.78;2.40;;;;;;;;;;5028129;28;20471;-64
2022/08/14 13:36:40;;;;;;;2.58;2.38;;;;;;;;;;5026813;28;20048;-64
2022/08/14 13:39:07;;;;;;;3.30;2.20;;;;;;;;;;5026813;28;20048;-64
2022/08/14 13:41:33;;;;;;;2.78;2.20;;;;;;;;;;5025883;28;20037;-64
2022/08/14 13:43:58;;;;;;;2.90;2.60;;;;;;;;;;5027214;28;20092;-64
2022/08/14 13:46:24;;;;;;;3.50;2.50;;;;;;;;;;5025061;28;20034;-64
2022/08/14 13:48:50;;;;;;;3.00;2.70;;;;;;;;;;5027707;28;20116;-64
2022/08/14 13:51:16;;;;;;;3.10;2.40;;;;;;;;;;5029647;28;20025;-64
2022/08/14 13:53:47;;;;;;;2.60;2.30;;;;;;;;;;5046043;28;20071;-64
2022/08/14 13:56:13;;;;;;;2.75;2.55;;;;;;;;;;5024994;28;20049;-64
2022/08/14 13:58:42;;;;;;;3.88;2.20;;;;;;;;;;5023935;28;20037;-64
2022/08/14 14:01:15;;;;;;;2.92;2.63;;;;;;;;;;5017141;28;20063;-64
2022/08/14 14:03:45;;;;;;;2.85;2.60;;;;;;;;;;5026209;28;20045;-64
2022/08/14 14:06:13;;;;;;;2.50;2.30;;;;;;;;;;5024508;28;20060;-65
2022/08/14 14:08:45;;;;;;;2.47;2.28;;;;;;;;;;5025077;28;20047;-65
2022/08/14 14:11:12;;;;;;;3.42;2.60;;;;;;;;;;5023746;28;20035;-65
2022/08/14 14:13:38;;;;;;;4.47;2.40;;;;;;;;;;5025257;28;20221;-67
2022/08/14 14:16:05;;;;;;;5.03;2.60;;;;;;;;;;5025124;28;20100;-67
2022/08/14 14:18:32;;;;;;;3.33;2.65;;;;;;;;;;5025033;28;20041;-68
2022/08/14 14:20:57;;;;;;;4.38;2.53;;;;;;;;;;5025145;28;20037;-67
2022/08/14 14:23:25;;;;;;;2.53;2.30;;;;;;;;;;5025300;28;20048;-68
2022/08/14 14:25:51;;;;;;;2.63;2.40;;;;;;;;;;5023088;28;20617;-73
2022/08/14 14:28:19;;;;;;;3.00;2.42;;;;;;;;;;5022886;28;20037;-68
2022/08/14 14:30:46;;;;;;;3.67;2.60;;;;;;;;;;5009264;28;20056;-69
2022/08/14 14:33:13;;;;;;;3.75;2.83;;;;;;;;;;5008048;28;20509;-69
2022/08/14 14:35:43;;;;;;;5.57;2.50;;;;;;;;;;5021969;28;20526;-68
2022/08/14 14:38:12;;;;;;;3.00;2.47;;;;;;;;;;5013914;28;20063;-68
2022/08/14 14:40:39;;;;;;;2.97;2.70;;;;;;;;;;5038762;28;20044;-67
2022/08/14 14:43:10;;;;;;;3.10;2.80;;;;;;;;;;5032057;28;20520;-68
2022/08/14 14:45:36;;;;;;;3.13;2.47;;;;;;;;;;5041052;28;20179;-68
2022/08/14 14:48:05;;;;;;;3.30;3.00;;;;;;;;;;5045522;28;20128;-68
2022/08/14 14:50:31;;;;;;;2.90;2.60;;;;;;;;;;5034928;28;20315;-70
2022/08/14 14:52:57;;;;;;;3.85;2.60;;;;;;;;;;5029288;28;20040;-68
2022/08/14 14:55:22;;;;;;;2.63;2.42;;;;;;;;;;5025389;28;20045;-73
2022/08/14 14:57:48;;;;;;;2.50;2.30;;;;;;;;;;5023979;28;20041;-65
2022/08/14 15:00:15;;;;;;;3.97;2.50;;;;;;;;;;5029010;28;21509;-67
2022/08/14 15:02:43;;;;;;;2.85;2.65;;;;;;;;;;5025694;28;20048;-67